Time;durP1;ratioP1;P1;durP2;ratioP2;P2;SDS_P1;SDS_P2;PMS_P1;PMS_P2;Temp;Humidity;BMP_temperature;BMP_pressure;BME280_temperature;BME280_humidity;BME280_pressure;Samples;Min_cycle;Max_cycle;Signal;HPM_P1;HPM_P2
2023/12/09 00:00:37;;;;;;;0.20;0.20;;;;;;;9.15;74.03;74753.50;6214030;23;19996;-88
2023/12/09 00:04:16;;;;;;;0.20;0.20;;;;;;;8.60;73.76;74691.84;6213279;23;20005;-88
2023/12/09 00:07:13;;;;;;;0.30;0.30;;;;;;;9.13;76.37;74757.25;6166458;23;20010;-88
2023/12/09 00:16:13;;;;;;;0.30;0.30;;;;;;;9.05;76.36;74736.66;6184030;23;20020;-89
2023/12/09 00:18:52;;;;;;;0.30;0.30;;;;;;;8.39;76.37;74661.88;6208584;23;20013;-89
2023/12/09 00:21:48;;;;;;;0.30;0.30;;;;;;;8.63;76.21;74698.19;6183910;23;20004;-89
2023/12/09 00:24:47;;;;;;;0.30;0.30;;;;;;;8.38;75.01;74663.44;6207745;23;20005;-89
2023/12/09 00:27:13;;;;;;;0.20;0.20;;;;;;;8.79;77.03;74711.13;6178362;23;20009;-87
2023/12/09 00:29:47;;;;;;;0.30;0.30;;;;;;;8.92;77.66;74727.25;6201812;23;19993;-88
2023/12/09 00:32:17;;;;;;;0.30;0.30;;;;;;;8.68;77.57;74698.03;6176776;23;20009;-88
2023/12/09 00:34:54;;;;;;;0.20;0.20;;;;;;;8.53;77.02;74686.25;6207717;23;20006;-86
2023/12/09 00:37:22;;;;;;;0.30;0.30;;;;;;;9.01;76.09;74736.81;6206584;23;20024;-87
2023/12/09 00:39:50;;;;;;;0.20;0.20;;;;;;;9.02;76.00;74738.00;6177238;23;20033;-87
2023/12/09 00:43:01;;;;;;;0.20;0.20;;;;;;;8.48;77.68;74674.78;6183470;23;20089;-89
2023/12/09 00:45:44;;;;;;;0.30;0.30;;;;;;;8.48;76.13;74672.00;6163503;23;20032;-88
2023/12/09 00:48:15;;;;;;;0.30;0.30;;;;;;;8.65;77.03;74695.03;6166391;23;20095;-88
2023/12/09 00:50:55;;;;;;;0.30;0.30;;;;;;;8.45;77.16;74671.19;6196744;23;20005;-88
2023/12/09 00:53:32;;;;;;;0.20;0.20;;;;;;;8.73;77.85;74704.56;6204787;23;20009;-89
2023/12/09 00:56:13;;;;;;;0.20;0.20;;;;;;;8.30;77.06;74657.22;6157897;23;20016;-89
2023/12/09 00:58:49;;;;;;;0.30;0.30;;;;;;;8.50;79.37;74677.75;6183322;23;20016;-89
2023/12/09 01:01:27;;;;;;;0.30;0.30;;;;;;;8.35;78.11;74660.41;6200852;23;20040;-88
2023/12/09 01:03:54;;;;;;;0.30;0.30;;;;;;;8.39;79.42;74670.72;6207073;23;20013;-88
2023/12/09 01:06:32;;;;;;;0.20;0.20;;;;;;;8.71;79.62;74704.97;6210088;23;20013;-89
2023/12/09 01:09:00;;;;;;;0.20;0.20;;;;;;;8.91;79.59;74726.06;6182831;23;20005;-89
2023/12/09 01:11:56;;;;;;;0.30;0.30;;;;;;;8.84;78.91;74717.72;6188442;23;20017;-89
2023/12/09 01:14:54;;;;;;;0.30;0.30;;;;;;;8.92;78.39;74727.25;6209040;23;19997;-88
2023/12/09 01:17:36;;;;;;;0.30;0.30;;;;;;;8.75;79.94;74706.97;6209131;23;20314;-88
2023/12/09 01:20:21;;;;;;;0.30;0.30;;;;;;;8.61;80.05;74690.88;6209503;23;20005;-88
2023/12/09 01:23:07;;;;;;;0.30;0.30;;;;;;;8.20;79.81;74645.28;6210152;23;20047;-88
2023/12/09 01:25:54;;;;;;;0.20;0.20;;;;;;;8.45;76.78;74671.78;6210140;23;20009;-88
2023/12/09 01:28:28;;;;;;;0.30;0.30;;;;;;;8.41;77.74;74667.00;6210416;23;19985;-88
2023/12/09 01:31:09;;;;;;;0.20;0.20;;;;;;;8.64;78.93;74694.44;6207826;23;20015;-88
2023/12/09 01:33:54;;;;;;;0.20;0.20;;;;;;;8.39;79.55;74665.22;6209907;23;20027;-88
2023/12/09 01:36:43;;;;;;;0.30;0.30;;;;;;;8.90;77.81;74724.88;6209926;23;20005;-88
2023/12/09 01:39:12;;;;;;;0.30;0.30;;;;;;;8.19;76.86;74641.34;6206742;23;20005;-88
2023/12/09 01:42:06;;;;;;;0.30;0.30;;;;;;;8.21;73.48;74643.72;6211797;23;20087;-86
2023/12/09 01:44:43;;;;;;;0.30;0.30;;;;;;;8.06;76.28;74623.09;6211039;23;20009;-86
2023/12/09 01:47:14;;;;;;;0.30;0.30;;;;;;;8.71;75.11;74702.19;6211083;23;20000;-88
2023/12/09 01:49:57;;;;;;;0.20;0.20;;;;;;;8.35;74.35;74663.16;6234634;23;20114;-88
2023/12/09 01:52:27;;;;;;;0.20;0.20;;;;;;;8.73;73.39;74709.50;6184477;23;20013;-87
2023/12/09 01:55:19;;;;;;;0.30;0.30;;;;;;;8.81;69.21;74713.53;6234752;23;20016;-87
2023/12/09 01:57:51;;;;;;;0.30;0.30;;;;;;;8.82;70.18;74720.25;6181069;23;20021;-88
2023/12/09 02:00:21;;;;;;;0.30;0.30;;;;;;;8.46;66.73;74672.38;6210287;23;20040;-88
2023/12/09 02:02:48;;;;;;;0.20;0.20;;;;;;;8.64;64.95;74693.84;6211549;23;20501;-87
2023/12/09 02:05:18;;;;;;;0.30;0.30;;;;;;;9.19;64.20;74758.28;6210103;23;20041;-88
2023/12/09 02:07:56;;;;;;;0.20;0.20;;;;;;;8.87;63.52;74729.56;6212348;23;20028;-87
2023/12/09 02:10:25;;;;;;;0.20;0.20;;;;;;;8.75;61.00;74706.38;6211490;23;20005;-87
2023/12/09 02:13:20;;;;;;;0.30;0.30;;;;;;;8.82;60.44;74718.09;6238168;23;20017;-87
2023/12/09 02:16:07;;;;;;;0.30;0.30;;;;;;;8.61;63.64;74685.34;6240775;23;20009;-88
2023/12/09 02:18:42;;;;;;;0.30;0.30;;;;;;;9.00;63.21;74738.38;6231056;23;20005;-87
2023/12/09 02:21:12;;;;;;;0.28;0.28;;;;;;;8.55;64.30;74683.13;6215109;23;20005;-88
2023/12/09 02:23:48;;;;;;;0.30;0.30;;;;;;;8.81;64.11;74713.53;6215080;23;20001;-88
2023/12/09 02:26:21;;;;;;;0.20;0.20;;;;;;;8.56;64.61;74689.81;6210672;23;19991;-88
2023/12/09 02:29:03;;;;;;;0.30;0.30;;;;;;;9.16;63.90;74760.22;6214178;23;20043;-88
2023/12/09 02:31:40;;;;;;;0.30;0.30;;;;;;;8.62;64.69;74694.22;6215226;23;20000;-89
2023/12/09 02:34:10;;;;;;;0.20;0.20;;;;;;;8.86;61.83;74720.09;6192177;23;20043;-87
2023/12/09 02:36:44;;;;;;;0.20;0.20;;;;;;;8.89;58.52;74718.19;6188829;23;20020;-88
2023/12/09 02:39:25;;;;;;;0.30;0.30;;;;;;;9.15;56.65;74753.50;6239529;23;20008;-89
2023/12/09 02:41:56;;;;;;;0.20;0.20;;;;;;;9.45;59.27;74785.97;6198886;23;20010;-89
2023/12/09 02:44:27;;;;;;;0.30;0.30;;;;;;;8.78;59.82;74709.94;6232188;23;20012;-89
2023/12/09 02:47:00;;;;;;;0.30;0.30;;;;;;;8.74;60.01;74705.78;6216852;23;20005;-89
2023/12/09 02:49:41;;;;;;;0.20;0.20;;;;;;;8.75;61.03;74709.72;6215006;23;20067;-89
2023/12/09 02:52:12;;;;;;;0.20;0.20;;;;;;;9.22;56.99;74767.41;6216074;23;20028;-89
2023/12/09 02:54:56;;;;;;;0.20;0.20;;;;;;;9.64;56.29;74810.81;6236376;23;20005;-88
2023/12/09 02:57:40;;;;;;;0.20;0.20;;;;;;;9.73;55.66;74818.19;6239657;23;20015;-87
2023/12/09 03:00:18;;;;;;;0.20;0.20;;;;;;;9.38;55.88;74774.84;6214065;23;20015;-88
2023/12/09 03:02:47;;;;;;;0.20;0.20;;;;;;;9.24;53.98;74763.66;6239897;23;20056;-88
2023/12/09 03:05:18;;;;;;;0.20;0.20;;;;;;;9.53;54.67;74797.66;6239683;23;20009;-88
2023/12/09 03:08:04;;;;;;;0.30;0.30;;;;;;;9.73;55.14;74818.78;6212497;23;20013;-89
2023/12/09 03:10:47;;;;;;;0.20;0.20;;;;;;;9.39;56.80;74781.56;6213671;23;20024;-89
2023/12/09 03:13:30;;;;;;;0.30;0.30;;;;;;;9.48;55.34;74791.69;6214560;23;20020;-88
2023/12/09 03:16:20;;;;;;;0.20;0.20;;;;;;;8.98;56.71;74727.72;6236704;23;20005;-88
2023/12/09 03:19:06;;;;;;;0.20;0.20;;;;;;;9.48;54.53;74792.31;6213443;23;20012;-88
2023/12/09 03:21:36;;;;;;;0.30;0.30;;;;;;;9.27;54.88;74767.84;6211104;23;20024;-88
2023/12/09 03:24:07;;;;;;;0.30;0.30;;;;;;;9.83;54.13;74838.44;6213333;23;20064;-87
2023/12/09 03:26:52;;;;;;;0.30;0.30;;;;;;;9.31;54.56;74769.84;6211725;23;20012;-88
2023/12/09 03:29:41;;;;;;;0.20;0.20;;;;;;;9.86;53.74;74839.84;6239126;23;20009;-88
2023/12/09 03:32:16;;;;;;;0.30;0.30;;;;;;;9.34;54.81;74778.94;6213823;23;20008;-88
2023/12/09 03:34:51;;;;;;;0.20;0.20;;;;;;;9.80;53.49;74829.94;6212423;23;20452;-87
2023/12/09 03:37:38;;;;;;;0.20;0.20;;;;;;;9.36;53.78;74778.56;6220831;23;20021;-87
2023/12/09 03:40:06;;;;;;;0.30;0.30;;;;;;;9.31;54.06;74769.84;6217017;23;20000;-86
2023/12/09 03:42:39;;;;;;;0.30;0.30;;;;;;;9.55;53.89;74800.06;6241879;23;20004;-86
2023/12/09 03:45:09;;;;;;;0.20;0.20;;;;;;;9.05;53.82;74742.16;6216509;23;20010;-87
2023/12/09 03:47:36;;;;;;;0.30;0.30;;;;;;;9.23;53.43;74763.06;6241455;23;20012;-87
2023/12/09 03:50:07;;;;;;;0.30;0.30;;;;;;;9.11;53.61;74749.34;6214897;23;20012;-88
2023/12/09 03:52:41;;;;;;;0.20;0.20;;;;;;;9.73;53.27;74821.56;6212553;23;20009;-88
2023/12/09 03:55:09;;;;;;;0.30;0.30;;;;;;;9.60;51.66;74803.28;6239531;23;20039;-87
2023/12/09 03:57:42;;;;;;;0.30;0.30;;;;;;;9.28;53.28;74771.78;6194203;23;20019;-88
2023/12/09 04:00:23;;;;;;;0.20;0.20;;;;;;;9.29;55.00;74767.47;6239169;23;20025;-88
2023/12/09 04:02:54;;;;;;;0.20;0.20;;;;;;;9.20;56.12;74759.47;6211591;23;20009;-89
2023/12/09 04:05:42;;;;;;;0.30;0.30;;;;;;;8.92;56.80;74726.66;6211751;23;20033;-88
2023/12/09 04:08:15;;;;;;;0.30;0.30;;;;;;;8.82;58.11;74714.72;6238637;23;19996;-89
2023/12/09 04:10:51;;;;;;;0.20;0.20;;;;;;;8.96;58.88;74728.69;6237304;23;20009;-89
2023/12/09 04:13:33;;;;;;;0.30;0.30;;;;;;;8.62;59.71;74694.22;6233573;23;20085;-89
2023/12/09 04:15:59;;;;;;;0.30;0.30;;;;;;;8.50;59.75;74683.25;6213370;23;20064;-89
2023/12/09 04:18:34;;;;;;;0.30;0.30;;;;;;;8.41;58.71;74669.75;6212079;23;20001;-88
2023/12/09 04:21:06;;;;;;;0.20;0.20;;;;;;;9.06;59.97;74740.03;6212731;23;20008;-89
2023/12/09 04:23:55;;;;;;;0.28;0.28;;;;;;;9.02;59.20;74738.00;6238179;23;20000;-88
2023/12/09 04:26:48;;;;;;;0.30;0.30;;;;;;;8.60;57.95;74689.66;6192021;23;20005;-89
2023/12/09 04:29:15;;;;;;;0.20;0.20;;;;;;;8.77;56.60;74709.34;6234471;23;20005;-89
2023/12/09 04:31:42;;;;;;;0.20;0.20;;;;;;;9.33;55.20;74775.00;6213028;23;20039;-87
2023/12/09 04:34:10;;;;;;;0.20;0.20;;;;;;;9.09;53.71;74746.94;6190616;23;20013;-87
2023/12/09 04:39:12;;;;;;;0.20;0.20;;;;;;;9.07;53.34;74741.22;6235291;22;20004;-86
2023/12/09 04:41:40;;;;;;;0.30;0.30;;;;;;;9.47;53.03;74791.09;6222763;22;20008;-85
2023/12/09 04:44:08;;;;;;;0.20;0.20;;;;;;;9.79;52.83;74828.13;6246426;22;19996;-87
2023/12/09 04:46:39;;;;;;;0.30;0.30;;;;;;;9.45;53.40;74785.97;6272110;22;20048;-86
2023/12/09 04:49:22;;;;;;;0.20;0.20;;;;;;;9.73;52.28;74826.47;6241215;23;20024;-87
2023/12/09 04:52:12;;;;;;;0.20;0.20;;;;;;;9.00;54.64;74738.97;6268853;23;20008;-88
2023/12/09 04:54:57;;;;;;;0.30;0.30;;;;;;;9.04;55.83;74740.38;6270094;23;20034;-88
2023/12/09 04:57:31;;;;;;;0.30;0.30;;;;;;;8.98;55.71;74733.22;6271528;23;20030;-86
2023/12/09 05:00:03;;;;;;;0.30;0.30;;;;;;;9.17;56.64;74758.66;6271608;23;20026;-88
2023/12/09 05:02:37;;;;;;;0.20;0.20;;;;;;;9.64;55.02;74805.28;6248274;23;20008;-88
2023/12/09 05:05:04;;;;;;;0.20;0.20;;;;;;;9.09;54.88;74751.88;6246262;22;20008;-87
2023/12/09 05:07:31;;;;;;;0.20;0.20;;;;;;;8.95;54.93;74732.41;6212961;23;20032;-87
2023/12/09 05:09:56;;;;;;;0.20;0.20;;;;;;;8.96;54.84;74725.34;6240699;23;20015;-87
2023/12/09 05:12:23;;;;;;;0.30;0.30;;;;;;;8.80;55.60;74712.94;6213933;23;20016;-87
2023/12/09 05:14:50;;;;;;;0.20;0.20;;;;;;;8.99;56.21;74734.41;6238970;23;20007;-87
2023/12/09 05:17:24;;;;;;;0.20;0.20;;;;;;;9.31;57.18;74767.09;6240747;23;20015;-87
2023/12/09 05:19:50;;;;;;;0.20;0.20;;;;;;;9.23;57.28;74768.00;6244245;23;20007;-88
2023/12/09 05:22:47;;;;;;;0.30;0.30;;;;;;;9.38;54.72;74785.91;6265568;23;19992;-88
2023/12/09 05:25:26;;;;;;;0.30;0.30;;;;;;;9.59;54.50;74802.69;6273740;23;20000;-88
2023/12/09 05:27:58;;;;;;;0.30;0.30;;;;;;;9.62;55.05;74808.41;6243148;23;20004;-88
2023/12/09 05:30:25;;;;;;;0.20;0.20;;;;;;;9.07;53.53;74744.56;6247520;23;20004;-87
2023/12/09 05:33:03;;;;;;;0.25;0.25;;;;;;;9.32;53.22;74773.81;6272378;23;20030;-86
2023/12/09 05:36:07;;;;;;;0.30;0.30;;;;;;;9.77;54.78;74828.50;6247862;23;20008;-88
2023/12/09 05:38:54;;;;;;;0.20;0.20;;;;;;;9.51;54.60;74798.06;6274409;22;20039;-86
2023/12/09 05:41:22;;;;;;;0.30;0.30;;;;;;;9.23;54.84;74765.22;6226964;22;20043;-88
2023/12/09 05:43:57;;;;;;;0.20;0.20;;;;;;;9.60;53.89;74812.16;6243916;23;20043;-87
2023/12/09 05:46:24;;;;;;;0.20;0.20;;;;;;;9.12;54.34;74750.53;6242283;23;20005;-87
2023/12/09 05:48:52;;;;;;;0.20;0.20;;;;;;;9.04;54.21;74740.38;6242939;23;20023;-87
2023/12/09 05:51:20;;;;;;;0.20;0.20;;;;;;;9.22;54.31;74759.13;6216074;23;20092;-87
2023/12/09 05:53:51;;;;;;;0.20;0.20;;;;;;;9.23;52.61;74762.47;6240285;23;20008;-88
2023/12/09 05:56:33;;;;;;;0.20;0.20;;;;;;;9.78;52.80;74826.94;6242858;23;20067;-88
2023/12/09 05:59:23;;;;;;;0.20;0.20;;;;;;;9.11;54.20;74748.75;6240700;23;20023;-88
2023/12/09 06:02:50;;;;;;;0.20;0.20;;;;;;;9.79;52.75;74828.72;6233632;23;20008;-88
2023/12/09 06:05:35;;;;;;;0.20;0.20;;;;;;;9.30;53.81;74770.81;6240558;23;20015;-89
2023/12/09 06:08:02;;;;;;;0.20;0.20;;;;;;;9.32;54.61;74773.19;6240483;23;20004;-90
2023/12/09 06:10:33;;;;;;;0.20;0.20;;;;;;;9.10;53.88;74747.53;6239404;23;20067;-87
2023/12/09 06:13:02;;;;;;;0.20;0.20;;;;;;;9.11;55.17;74751.50;6236389;23;20004;-87
2023/12/09 06:15:31;;;;;;;0.20;0.20;;;;;;;9.56;53.13;74799.09;6234728;23;20068;-88
2023/12/09 06:17:57;;;;;;;0.20;0.20;;;;;;;9.58;55.50;74804.25;6237229;23;20011;-87
2023/12/09 06:20:26;;;;;;;0.20;0.20;;;;;;;8.99;54.84;74737.75;6235901;23;20000;-88
2023/12/09 06:22:52;;;;;;;0.22;0.22;;;;;;;8.99;55.82;74735.00;6234417;23;20004;-87
2023/12/09 06:25:19;;;;;;;0.20;0.20;;;;;;;9.47;55.75;74791.09;6235661;23;20235;-88
2023/12/09 06:27:49;;;;;;;0.30;0.30;;;;;;;9.14;56.17;74755.06;6235575;23;20004;-87
2023/12/09 06:30:16;;;;;;;0.20;0.20;;;;;;;8.88;56.56;74721.88;6209650;23;20016;-87
2023/12/09 06:32:43;;;;;;;0.30;0.30;;;;;;;9.06;56.09;74742.78;6233022;23;20001;-87
2023/12/09 06:35:09;;;;;;;0.30;0.30;;;;;;;9.24;56.37;74767.00;6233087;23;20031;-88
2023/12/09 06:37:43;;;;;;;0.30;0.30;;;;;;;9.45;56.75;74792.09;6234421;23;20345;-88
2023/12/09 06:40:11;;;;;;;0.20;0.20;;;;;;;9.47;56.90;74796.03;6234100;23;20095;-87
2023/12/09 06:42:42;;;;;;;0.20;0.20;;;;;;;9.60;56.26;74808.81;6233306;23;20059;-88
2023/12/09 06:45:16;;;;;;;0.20;0.20;;;;;;;9.48;54.00;74791.69;6211298;23;20086;-88
2023/12/09 06:47:57;;;;;;;0.20;0.20;;;;;;;9.53;54.83;74792.16;6235253;23;19996;-88
2023/12/09 06:50:38;;;;;;;0.20;0.20;;;;;;;9.27;55.10;74770.59;6240874;23;19995;-88
2023/12/09 06:53:14;;;;;;;0.20;0.20;;;;;;;9.44;53.50;74784.78;6237375;23;20043;-88
2023/12/09 06:55:47;;;;;;;0.20;0.20;;;;;;;9.77;53.84;74823.56;6239659;23;20058;-88
2023/12/09 06:58:54;;;;;;;0.20;0.20;;;;;;;9.85;54.99;74835.28;6241272;23;19997;-89
2023/12/09 07:01:37;;;;;;;0.20;0.20;;;;;;;9.97;56.01;74849.63;6241529;23;19989;-88
2023/12/09 07:04:09;;;;;;;0.30;0.30;;;;;;;9.33;56.30;74769.50;6240143;23;20023;-88
2023/12/09 07:07:06;;;;;;;0.20;0.20;;;;;;;9.83;58.40;74832.91;6213810;23;20004;-87
2023/12/09 07:09:58;;;;;;;0.20;0.20;;;;;;;9.88;58.75;74836.13;6226862;23;19988;-89
2023/12/09 07:12:29;;;;;;;0.20;0.20;;;;;;;9.29;59.00;74769.63;6240560;23;20051;-89
2023/12/09 07:15:29;;;;;;;0.20;0.20;;;;;;;9.67;58.16;74814.41;6238313;23;20008;-88
2023/12/09 07:18:18;;;;;;;0.30;0.30;;;;;;;9.44;58.84;74790.31;6233642;23;20001;-89
2023/12/09 07:21:21;;;;;;;0.30;0.30;;;;;;;9.88;58.02;74842.22;6226394;23;20035;-88
2023/12/09 07:24:30;;;;;;;0.30;0.30;;;;;;;9.52;57.18;74799.84;6239918;23;20039;-88
2023/12/09 07:27:56;;;;;;;0.20;0.20;;;;;;;10.08;55.81;74862.75;6221466;23;20012;-88
2023/12/09 07:30:40;;;;;;;0.20;0.20;;;;;;;9.62;57.69;74805.66;6241583;23;19991;-89
2023/12/09 07:33:58;;;;;;;0.20;0.20;;;;;;;9.64;56.97;74814.19;6173176;22;20035;-89
2023/12/09 07:39:23;;;;;;;0.30;0.30;;;;;;;9.92;55.20;74849.78;6215223;22;20016;-88
2023/12/09 07:41:57;;;;;;;0.20;0.20;;;;;;;9.97;56.03;74852.38;6238181;23;20012;-90
2023/12/09 07:44:30;;;;;;;0.22;0.22;;;;;;;10.10;55.82;74867.31;6234854;23;20004;-88
2023/12/09 07:46:58;;;;;;;0.25;0.25;;;;;;;9.86;55.00;74837.09;6213145;23;20031;-89
2023/12/09 07:50:17;;;;;;;0.20;0.20;;;;;;;9.91;55.29;74843.06;6216584;23;20012;-89
2023/12/09 08:01:12;;;;;;;0.20;0.20;;;;;;;10.86;54.62;74950.78;6213809;22;20023;-88
2023/12/09 08:03:38;;;;;;;0.20;0.20;;;;;;;10.31;54.42;74889.06;6210417;23;20048;-89
2023/12/09 08:06:06;;;;;;;0.20;0.20;;;;;;;10.46;54.03;74907.56;6186438;23;20024;-88
2023/12/09 08:08:41;;;;;;;0.30;0.30;;;;;;;10.64;54.27;74922.34;6212945;23;20005;-88
2023/12/09 08:11:16;;;;;;;0.20;0.20;;;;;;;10.53;54.00;74909.22;6179908;23;19996;-88
2023/12/09 08:34:57;;;;;;;0.20;0.20;;;;;;;11.64;49.80;75039.47;6239193;22;20013;-88
2023/12/09 09:48:44;;;;;;;0.20;0.20;;;;;;;16.32;39.60;75594.78;6243313;22;20070;-93
2023/12/09 09:51:16;;;;;;;0.20;0.20;;;;;;;16.65;37.99;75628.16;6219865;23;20022;-92
2023/12/09 10:11:47;;;;;;;0.20;0.20;;;;;;;16.73;33.49;75641.19;6243335;22;20032;-91
2023/12/09 10:14:12;;;;;;;0.20;0.20;;;;;;;16.40;34.83;75598.78;6193277;23;20016;-91
2023/12/09 10:16:38;;;;;;;0.30;0.30;;;;;;;16.42;35.34;75601.19;6218282;23;20038;-90
2023/12/09 10:19:08;;;;;;;0.20;0.20;;;;;;;16.86;35.86;75658.38;6218889;23;20008;-90
2023/12/09 10:21:33;;;;;;;0.20;0.20;;;;;;;17.11;36.07;75682.19;6218170;23;20031;-90
2023/12/09 10:23:59;;;;;;;0.20;0.20;;;;;;;17.40;33.29;75716.38;6244728;23;20032;-91
2023/12/09 10:26:24;;;;;;;0.20;0.20;;;;;;;17.28;33.04;75708.16;6218047;23;20126;-91
2023/12/09 10:28:50;;;;;;;0.20;0.20;;;;;;;17.16;30.97;75688.19;6218066;23;20049;-91
2023/12/09 11:28:20;;;;;;;0.20;0.20;;;;;;;15.69;33.83;75516.03;6214385;22;20276;-91
2023/12/09 11:30:46;;;;;;;0.20;0.20;;;;;;;15.95;34.58;75549.41;6188327;23;20017;-90
2023/12/09 11:33:21;;;;;;;0.20;0.20;;;;;;;16.13;34.45;75567.00;6187248;23;20001;-90
2023/12/09 11:35:48;;;;;;;0.20;0.20;;;;;;;15.96;34.03;75544.41;6187585;23;20082;-89
2023/12/09 11:41:11;;;;;;;0.20;0.20;;;;;;;15.95;34.66;75548.81;6226907;23;20278;-90
2023/12/09 11:43:40;;;;;;;0.20;0.20;;;;;;;16.37;33.95;75595.19;6217069;23;20004;-90
2023/12/09 11:46:06;;;;;;;0.20;0.20;;;;;;;16.44;33.82;75604.16;6217441;23;20012;-92
2023/12/09 11:48:41;;;;;;;0.20;0.20;;;;;;;17.09;33.82;75679.78;6217558;23;20004;-91
2023/12/09 11:51:07;;;;;;;0.20;0.20;;;;;;;17.38;33.00;75714.56;6218137;23;20012;-91
2023/12/09 11:53:33;;;;;;;0.20;0.20;;;;;;;17.62;33.25;75739.97;6217112;23;20031;-90
2023/12/09 11:56:04;;;;;;;0.20;0.20;;;;;;;17.68;32.03;75747.19;6217797;23;20008;-92
2023/12/09 11:58:34;;;;;;;0.20;0.20;;;;;;;17.07;31.63;75677.97;6244534;23;20001;-91
2023/12/09 12:01:00;;;;;;;0.20;0.20;;;;;;;16.91;31.70;75658.78;6217759;23;20451;-91
2023/12/09 12:03:25;;;;;;;0.20;0.20;;;;;;;16.88;32.01;75655.78;6217322;23;20004;-90
2023/12/09 12:05:50;;;;;;;0.20;0.20;;;;;;;17.21;31.53;75691.38;6244214;23;20001;-92
2023/12/09 12:08:16;;;;;;;0.20;0.20;;;;;;;16.83;32.45;75649.16;6217266;23;20482;-91
2023/12/09 12:10:41;;;;;;;0.20;0.20;;;;;;;16.72;32.05;75634.41;6243946;23;20004;-89
2023/12/09 12:13:10;;;;;;;0.20;0.20;;;;;;;16.58;32.51;75620.38;6217187;23;20000;-90
2023/12/09 12:15:36;;;;;;;0.20;0.20;;;;;;;16.54;32.42;75614.97;6243197;22;20040;-89
2023/12/09 12:18:01;;;;;;;0.20;0.20;;;;;;;16.56;32.77;75617.97;6217555;23;20012;-90
2023/12/09 12:20:27;;;;;;;0.20;0.20;;;;;;;16.71;35.05;75633.19;6216981;23;20008;-90
2023/12/09 12:22:52;;;;;;;0.20;0.20;;;;;;;16.88;34.04;75655.16;6243850;23;20016;-90
2023/12/09 12:25:18;;;;;;;0.20;0.20;;;;;;;16.89;35.10;75656.38;6242642;22;20511;-90
2023/12/09 12:27:46;;;;;;;0.20;0.20;;;;;;;15.95;35.91;75543.22;6217251;23;20475;-90
2023/12/09 12:30:13;;;;;;;0.20;0.20;;;;;;;16.01;36.82;75553.22;6217753;23;20016;-90
2023/12/09 12:32:39;;;;;;;0.20;0.20;;;;;;;15.98;36.78;75555.78;6244188;23;20396;-92
2023/12/09 12:35:08;;;;;;;0.20;0.20;;;;;;;16.14;36.94;75571.59;6218246;23;20004;-90
2023/12/09 12:37:35;;;;;;;0.20;0.20;;;;;;;16.01;35.72;75552.59;6192833;23;20444;-89
2023/12/09 12:40:07;;;;;;;0.20;0.20;;;;;;;15.98;36.84;75544.63;6217538;23;20047;-89
2023/12/09 12:42:35;;;;;;;0.20;0.20;;;;;;;15.97;36.80;75548.41;6217659;23;20087;-90
2023/12/09 12:45:03;;;;;;;0.20;0.20;;;;;;;16.08;37.59;75561.59;6216402;23;20078;-91
2023/12/09 12:47:29;;;;;;;0.20;0.20;;;;;;;16.11;36.23;75565.19;6217570;23;20008;-91
2023/12/09 12:49:55;;;;;;;0.20;0.20;;;;;;;16.09;36.36;75562.22;6191845;23;20031;-90
2023/12/09 12:52:20;;;;;;;0.20;0.20;;;;;;;16.28;36.23;75584.38;6217234;23;20004;-91
2023/12/09 12:54:46;;;;;;;0.20;0.20;;;;;;;15.92;36.33;75545.78;6216860;23;20012;-90
2023/12/09 12:57:15;;;;;;;0.20;0.20;;;;;;;15.93;37.11;75543.63;6217143;23;20012;-89
2023/12/09 13:00:30;;;;;;;0.20;0.20;;;;;;;15.77;39.29;75524.44;6220799;23;20061;-88
2023/12/09 13:47:44;;;;;;;0.20;0.20;;;;;;;15.28;42.56;75469.66;6246424;22;20027;-88
2023/12/09 13:50:39;;;;;;;0.20;0.20;;;;;;;15.49;41.94;75494.81;6219596;23;20107;-89
2023/12/09 14:02:00;;;;;;;0.20;0.20;;;;;;;15.17;40.34;75452.09;6230678;22;20040;-90
2023/12/09 14:04:29;;;;;;;0.20;0.20;;;;;;;15.10;38.88;75445.91;6189386;23;20024;-90
2023/12/09 16:00:45;;;;;;;0.20;0.20;;;;;;;10.92;55.24;74960.72;6182488;22;20024;-88
2023/12/09 16:56:05;;;;;;;0.20;0.20;;;;;;;9.45;72.98;74794.25;6205501;22;20104;-87
2023/12/09 17:02:08;;;;;;;0.20;0.20;;;;;;;9.81;74.05;74830.53;6091558;23;19999;-88
2023/12/09 17:04:59;;;;;;;0.20;0.20;;;;;;;9.49;73.07;74792.91;6184557;23;19993;-89
2023/12/09 17:15:57;;;;;;;0.30;0.30;;;;;;;9.47;75.17;74790.50;6199639;22;20023;-87
2023/12/09 17:18:27;;;;;;;0.20;0.20;;;;;;;9.36;75.76;74781.34;6234570;23;20039;-87
2023/12/09 17:21:02;;;;;;;0.30;0.30;;;;;;;9.65;75.57;74812.00;6235551;23;20001;-88
2023/12/09 17:23:32;;;;;;;0.20;0.20;;;;;;;9.35;76.91;74777.38;6211523;23;20004;-87
2023/12/09 17:26:29;;;;;;;0.20;0.20;;;;;;;9.11;77.53;74748.75;6240223;23;19980;-88
2023/12/09 17:28:56;;;;;;;0.20;0.20;;;;;;;9.05;77.60;74741.56;6213805;23;20441;-87
2023/12/09 17:31:34;;;;;;;0.30;0.30;;;;;;;9.02;78.27;74738.00;6213425;23;20012;-88
2023/12/09 17:34:20;;;;;;;0.20;0.20;;;;;;;9.67;78.31;74814.41;6206686;23;19999;-87
2023/12/09 17:36:48;;;;;;;0.30;0.30;;;;;;;9.39;77.13;74784.31;6232459;23;20005;-88
2023/12/09 17:39:16;;;;;;;0.30;0.30;;;;;;;8.88;77.82;74722.47;6190034;23;20004;-88
2023/12/09 17:41:42;;;;;;;0.30;0.30;;;;;;;9.10;78.70;74750.88;6214487;23;20056;-88
2023/12/09 17:44:10;;;;;;;0.25;0.25;;;;;;;9.45;78.80;74789.31;6215017;23;20015;-87
2023/12/09 17:46:41;;;;;;;0.30;0.30;;;;;;;9.20;77.88;74765.00;6241857;23;20012;-86
2023/12/09 17:49:16;;;;;;;;;;;;;;;9.56;79.06;74798.50;6239708;23;20040;-88
2023/12/09 17:51:44;;;;;;;0.22;0.22;;;;;;;9.02;79.38;74732.50;6215540;23;19915;-87
2023/12/09 17:54:22;;;;;;;0.30;0.30;;;;;;;9.60;78.35;74806.63;6239441;23;20044;-87
2023/12/09 17:57:11;;;;;;;0.30;0.30;;;;;;;9.50;77.86;74794.09;6201435;23;20013;-87
2023/12/09 17:59:37;;;;;;;0.30;0.30;;;;;;;8.82;77.79;74712.56;6209271;23;20005;-88
2023/12/09 18:02:05;;;;;;;0.22;0.22;;;;;;;8.91;77.87;74723.31;6213697;23;19989;-88
2023/12/09 18:04:32;;;;;;;0.20;0.20;;;;;;;8.70;78.07;74701.00;6239179;23;20008;-87
2023/12/09 18:07:25;;;;;;;0.30;0.30;;;;;;;8.71;78.26;74707.72;6242205;23;20008;-90
2023/12/09 18:09:51;;;;;;;0.20;0.20;;;;;;;8.91;78.74;74728.81;6211148;23;20009;-89
2023/12/09 18:12:21;;;;;;;0.30;0.30;;;;;;;8.83;78.21;74716.50;6242284;23;20004;-89
2023/12/09 18:15:00;;;;;;;0.30;0.30;;;;;;;8.75;78.16;74709.13;6241638;23;20001;-89
2023/12/09 18:17:35;;;;;;;0.30;0.30;;;;;;;8.58;78.40;74690.06;6182875;23;20029;-88
2023/12/09 18:20:31;;;;;;;0.30;0.30;;;;;;;8.75;78.89;74704.22;6181656;23;20037;-90
2023/12/09 18:22:59;;;;;;;0.30;0.30;;;;;;;8.53;79.02;74683.50;6213133;23;20017;-89
2023/12/09 18:25:49;;;;;;;0.20;0.20;;;;;;;8.76;78.85;74708.16;6186531;23;19989;-89
2023/12/09 18:28:38;;;;;;;0.30;0.30;;;;;;;8.52;80.54;74679.53;6211345;23;19993;-90
2023/12/09 18:31:21;;;;;;;0.30;0.30;;;;;;;8.43;80.58;74669.41;6212091;23;20000;-90
2023/12/09 18:33:50;;;;;;;0.30;0.30;;;;;;;8.46;80.52;74672.38;6212399;23;20017;-89
2023/12/09 18:36:28;;;;;;;0.20;0.20;;;;;;;8.44;80.50;74675.50;6184912;23;19993;-89
2023/12/09 18:39:07;;;;;;;0.30;0.30;;;;;;;8.34;80.75;74661.97;6213436;23;19990;-89
2023/12/09 18:42:07;;;;;;;0.30;0.30;;;;;;;8.65;81.59;74700.56;6211486;23;20028;-90
2023/12/09 18:44:37;;;;;;;0.25;0.25;;;;;;;8.77;81.67;74709.34;6185518;23;20027;-87
2023/12/09 18:48:04;;;;;;;0.20;0.20;;;;;;;8.35;81.21;74659.81;6232743;23;20001;-90
2023/12/09 18:51:03;;;;;;;0.20;0.20;;;;;;;8.53;81.59;74680.75;6187234;23;19989;-89
2023/12/09 18:53:51;;;;;;;0.30;0.30;;;;;;;8.30;81.15;74654.44;6179894;23;19996;-89
2023/12/09 18:56:41;;;;;;;0.30;0.30;;;;;;;8.93;81.73;74731.22;6187460;23;20040;-89
2023/12/09 18:59:13;;;;;;;0.30;0.30;;;;;;;8.23;82.10;74640.00;6203170;23;20008;-90
2023/12/09 19:02:27;;;;;;;0.30;0.30;;;;;;;8.38;81.92;74666.19;6175776;23;19989;-90
2023/12/09 19:05:11;;;;;;;0.20;0.20;;;;;;;8.49;82.57;74675.97;6212956;23;20004;-88
2023/12/09 19:07:38;;;;;;;0.20;0.20;;;;;;;8.19;82.26;74641.34;6198777;23;19997;-90
2023/12/09 19:10:28;;;;;;;0.20;0.20;;;;;;;8.71;82.19;74702.19;6193120;23;20056;-90
2023/12/09 19:12:58;;;;;;;0.20;0.20;;;;;;;8.17;82.45;74638.38;6206592;23;20020;-90
2023/12/09 19:15:29;;;;;;;0.30;0.30;;;;;;;8.21;82.05;74643.13;6218001;23;19997;-90
2023/12/09 19:18:28;;;;;;;0.30;0.30;;;;;;;8.88;81.37;74724.63;6240422;23;20013;-90
2023/12/09 19:21:00;;;;;;;0.20;0.20;;;;;;;8.38;81.65;74664.03;6216291;23;19988;-90
2023/12/09 19:23:32;;;;;;;0.30;0.30;;;;;;;8.63;82.50;74692.66;6215527;23;20044;-89
2023/12/09 19:26:14;;;;;;;0.20;0.20;;;;;;;8.44;82.42;74670.00;6238684;23;20005;-89
2023/12/09 19:32:07;;;;;;;0.30;0.30;;;;;;;8.58;83.18;74689.47;6241488;23;20019;-88